createdAt,value
2018-11-06T00:00:36.236Z,11.02
2018-11-06T00:03:11.368Z,11.02
2018-11-06T00:05:41.536Z,10.95
2018-11-06T00:08:12.640Z,10.90
2018-11-06T00:10:42.544Z,10.86
2018-11-06T00:13:12.685Z,10.79
2018-11-06T00:15:42.713Z,10.77
2018-11-06T00:18:12.950Z,10.70
2018-11-06T00:20:42.717Z,10.70
2018-11-06T00:23:12.556Z,10.76
2018-11-06T00:25:42.719Z,10.91
2018-11-06T00:28:12.562Z,10.89
2018-11-06T00:30:42.788Z,10.87
2018-11-06T00:33:13.081Z,10.85
2018-11-06T00:35:43.188Z,10.83
2018-11-06T00:38:13.443Z,10.76
2018-11-06T00:40:43.349Z,10.70
2018-11-06T00:43:13.079Z,10.65
2018-11-06T00:45:43.456Z,10.61
2018-11-06T00:48:13.493Z,10.55
2018-11-06T00:50:43.981Z,10.59
2018-11-06T00:53:13.910Z,10.55
2018-11-06T00:55:43.881Z,10.56
2018-11-06T00:58:13.746Z,10.58
2018-11-06T01:00:43.731Z,10.58
2018-11-06T01:03:13.912Z,10.56
2018-11-06T01:05:44.167Z,10.46
2018-11-06T01:08:14.337Z,10.42
2018-11-06T01:10:44.694Z,10.41
2018-11-06T01:13:14.567Z,10.37
2018-11-06T01:15:44.511Z,10.38
2018-11-06T01:18:14.343Z,10.32
2018-11-06T01:20:44.107Z,10.30
2018-11-06T01:23:14.239Z,10.23
2018-11-06T01:25:44.376Z,10.10
2018-11-06T01:28:14.501Z,10.01
2018-11-06T01:30:44.588Z,9.98
2018-11-06T01:33:14.405Z,9.96
2018-11-06T01:35:44.167Z,9.89
2018-11-06T01:38:14.326Z,9.88
2018-11-06T01:40:44.343Z,9.88
2018-11-06T01:43:14.202Z,9.91
2018-11-06T01:45:44.335Z,10.04
2018-11-06T01:48:15.069Z,10.09
2018-11-06T01:50:44.916Z,10.25
2018-11-06T01:53:14.875Z,10.26
2018-11-06T01:55:45.480Z,10.40
2018-11-06T01:58:15.271Z,10.40
2018-11-06T02:00:45.443Z,10.36
2018-11-06T02:03:15.320Z,10.31
2018-11-06T02:05:45.196Z,10.37
2018-11-06T02:08:15.035Z,10.40
2018-11-06T02:10:45.143Z,10.45
2018-11-06T02:13:14.940Z,10.59
2018-11-06T02:15:44.905Z,10.50
2018-11-06T02:18:16.224Z,10.48
2018-11-06T02:20:46.584Z,10.46
2018-11-06T02:23:16.730Z,10.41
2018-11-06T02:25:46.640Z,10.43
2018-11-06T02:28:16.774Z,10.37
2018-11-06T02:30:46.799Z,10.31
2018-11-06T02:33:16.714Z,10.28
2018-11-06T02:35:46.564Z,10.23
2018-11-06T02:38:16.566Z,10.15
2018-11-06T02:40:46.436Z,10.08
2018-11-06T02:43:16.358Z,10.05
2018-11-06T02:45:46.258Z,10.01
2018-11-06T02:48:16.079Z,9.97
2018-11-06T02:50:46.023Z,9.98
2018-11-06T02:53:16.170Z,9.91
2018-11-06T02:55:46.097Z,9.86
2018-11-06T02:58:16.075Z,9.80
2018-11-06T03:00:46.010Z,9.81
2018-11-06T03:03:16.138Z,9.71
2018-11-06T03:05:46.032Z,9.59
2018-11-06T03:08:16.060Z,9.52
2018-11-06T03:10:45.881Z,9.47
2018-11-06T03:13:16.907Z,9.39
2018-11-06T03:15:47.079Z,9.37
2018-11-06T03:18:16.888Z,9.35
2018-11-06T03:20:46.934Z,9.35
2018-11-06T03:23:17.132Z,9.37
2018-11-06T03:25:46.956Z,9.35
2018-11-06T03:28:16.805Z,9.35
2018-11-06T03:30:46.671Z,9.30
2018-11-06T03:33:28.978Z,9.30
2018-11-06T03:35:59.205Z,9.31
2018-11-06T03:38:29.149Z,9.26
2018-11-06T03:40:58.927Z,9.28
2018-11-06T03:43:28.866Z,9.27
2018-11-06T03:45:58.674Z,9.19
2018-11-06T03:48:28.546Z,9.19
2018-11-06T03:50:58.312Z,9.18
2018-11-06T03:53:28.064Z,9.13
2018-11-06T03:55:57.943Z,9.08
2018-11-06T03:58:27.977Z,9.01
2018-11-06T04:00:58.037Z,8.95
2018-11-06T04:03:27.805Z,8.98
2018-11-06T04:05:57.614Z,8.96
2018-11-06T04:08:27.590Z,8.95
2018-11-06T04:10:57.532Z,8.87
2018-11-06T04:13:27.238Z,8.82
2018-11-06T04:15:57.060Z,8.77
2018-11-06T04:18:26.875Z,8.79
2018-11-06T04:20:56.727Z,8.80
2018-11-06T04:23:26.707Z,8.83
2018-11-06T04:25:56.966Z,8.79
2018-11-06T04:28:26.851Z,8.80
2018-11-06T04:30:56.692Z,8.80
2018-11-06T04:33:26.663Z,8.86
2018-11-06T04:35:56.399Z,8.84
2018-11-06T04:38:26.162Z,8.82
2018-11-06T04:40:56.234Z,8.79
2018-11-06T04:43:26.148Z,8.82
2018-11-06T04:45:56.042Z,8.76
2018-11-06T04:48:25.955Z,8.70
2018-11-06T04:50:55.778Z,8.65
2018-11-06T04:53:26.016Z,8.70
2018-11-06T04:55:55.910Z,8.83
2018-11-06T04:58:25.851Z,8.88
2018-11-06T05:00:55.585Z,8.97
2018-11-06T05:03:25.289Z,8.92
2018-11-06T05:05:55.084Z,8.92
2018-11-06T05:08:25.504Z,8.85
2018-11-06T05:10:55.313Z,8.81
2018-11-06T05:13:25.216Z,8.78
2018-11-06T05:15:55.099Z,8.75
2018-11-06T05:18:25.162Z,8.70
2018-11-06T05:20:55.460Z,8.66
2018-11-06T05:23:25.215Z,8.66
2018-11-06T05:25:55.011Z,8.72
2018-11-06T05:28:24.878Z,8.73
2018-11-06T05:30:54.858Z,8.74
2018-11-06T05:33:24.991Z,8.81
2018-11-06T05:35:55.576Z,8.84
2018-11-06T05:38:25.431Z,8.79
2018-11-06T05:41:04.473Z,8.77
2018-11-06T05:43:34.789Z,8.84
2018-11-06T05:46:04.684Z,8.86
2018-11-06T05:48:34.626Z,8.91
2018-11-06T05:51:04.461Z,8.93
2018-11-06T05:53:34.308Z,8.91
2018-11-06T05:56:04.126Z,8.98
2018-11-06T05:58:33.901Z,8.97
2018-11-06T06:01:05.185Z,8.91
2018-11-06T06:03:35.006Z,8.77
2018-11-06T06:06:05.533Z,8.70
2018-11-06T06:08:35.481Z,8.66
2018-11-06T06:11:05.435Z,8.64
2018-11-06T06:13:35.281Z,8.59
2018-11-06T06:16:05.227Z,8.52
2018-11-06T06:18:35.105Z,8.49
2018-11-06T06:21:04.971Z,8.51
2018-11-06T06:23:35.025Z,8.55
2018-11-06T06:26:04.969Z,8.54
2018-11-06T06:28:34.888Z,8.57
2018-11-06T06:31:04.902Z,8.65
2018-11-06T06:33:35.536Z,8.67
2018-11-06T06:36:05.288Z,8.67
2018-11-06T06:38:35.194Z,8.72
2018-11-06T06:41:05.270Z,8.83
2018-11-06T06:43:34.957Z,8.85
2018-11-06T06:46:04.908Z,8.95
2018-11-06T06:48:34.725Z,8.97
2018-11-06T06:51:04.620Z,9.00
2018-11-06T06:53:34.597Z,9.09
2018-11-06T06:56:04.400Z,9.17
2018-11-06T06:58:34.320Z,9.22
2018-11-06T07:01:04.196Z,9.22
2018-11-06T07:03:34.068Z,9.25
2018-11-06T07:06:03.880Z,9.27
2018-11-06T07:08:33.708Z,9.33
2018-11-06T07:11:03.596Z,9.37
2018-11-06T07:13:33.474Z,9.45
2018-11-06T07:16:03.247Z,9.50
2018-11-06T07:18:33.438Z,9.56
2018-11-06T07:21:03.233Z,9.65
2018-11-06T07:23:33.136Z,9.78
2018-11-06T07:26:02.970Z,9.90
2018-11-06T07:28:32.823Z,10.02
2018-11-06T07:31:02.769Z,10.16
2018-11-06T07:33:32.728Z,10.28
2018-11-06T07:36:02.505Z,10.37
2018-11-06T07:38:32.296Z,10.48
2018-11-06T07:41:02.145Z,10.58
2018-11-06T07:43:31.949Z,10.68
2018-11-06T07:46:01.752Z,10.73
2018-11-06T07:48:31.626Z,10.79
2018-11-06T07:51:01.439Z,10.88
2018-11-06T07:53:31.126Z,11.00
2018-11-06T07:56:00.976Z,11.12
2018-11-06T07:58:30.718Z,11.22
2018-11-06T08:01:00.472Z,11.30
2018-11-06T08:03:30.898Z,11.42
2018-11-06T08:06:00.658Z,11.57
2018-11-06T08:08:30.524Z,11.60
2018-11-06T08:11:00.412Z,11.68
2018-11-06T08:13:30.196Z,11.76
2018-11-06T08:15:59.972Z,11.85
2018-11-06T08:18:29.808Z,11.89
2018-11-06T08:20:59.587Z,11.98
2018-11-06T08:23:29.392Z,12.08
2018-11-06T08:25:59.151Z,12.17
2018-11-06T08:28:29.192Z,12.22
2018-11-06T08:30:59.133Z,12.31
2018-11-06T08:33:29.261Z,12.39
2018-11-06T08:35:59.150Z,12.48
2018-11-06T08:38:29.032Z,12.50
2018-11-06T08:40:58.923Z,12.57
2018-11-06T08:43:28.773Z,12.62
2018-11-06T08:45:58.568Z,12.67
2018-11-06T08:48:28.400Z,12.75
2018-11-06T08:50:58.896Z,12.85
2018-11-06T08:53:28.701Z,12.91
2018-11-06T08:55:58.545Z,12.95
2018-11-06T08:58:28.514Z,13.01
2018-11-06T09:00:59.035Z,13.04
2018-11-06T09:03:28.803Z,13.11
2018-11-06T09:05:58.644Z,13.19
2018-11-06T09:08:28.439Z,13.28
2018-11-06T09:10:58.253Z,13.30
2018-11-06T09:13:28.167Z,13.34
2018-11-06T09:15:57.903Z,13.41
2018-11-06T09:18:27.729Z,13.45
2018-11-06T09:20:58.711Z,13.56
2018-11-06T09:23:28.519Z,13.59
2018-11-06T09:25:58.404Z,13.65
2018-11-06T09:28:28.222Z,13.68
2018-11-06T09:30:58.186Z,13.68
2018-11-06T09:33:27.897Z,13.76
2018-11-06T09:35:57.668Z,13.81
2018-11-06T09:38:27.596Z,13.91
2018-11-06T09:40:57.395Z,13.94
2018-11-06T09:43:27.322Z,13.99
2018-11-06T09:45:57.211Z,14.03
2018-11-06T09:48:27.101Z,14.04
2018-11-06T09:50:57.010Z,14.08
2018-11-06T09:53:26.757Z,14.12
2018-11-06T09:55:56.497Z,14.14
2018-11-06T09:58:26.285Z,14.16
2018-11-06T10:00:56.075Z,14.25
2018-11-06T10:03:25.919Z,14.32
2018-11-06T10:05:55.775Z,14.36
2018-11-06T10:08:26.490Z,14.42
2018-11-06T10:10:56.524Z,14.41
2018-11-06T10:13:26.432Z,14.45
2018-11-06T10:15:56.350Z,14.54
2018-11-06T10:18:26.241Z,14.68
2018-11-06T10:20:56.179Z,14.71
2018-11-06T10:23:25.979Z,14.77
2018-11-06T10:25:56.290Z,14.83
2018-11-06T10:28:26.155Z,14.85
2018-11-06T10:30:56.040Z,14.92
2018-11-06T10:33:25.797Z,14.94
2018-11-06T10:35:55.762Z,15.01
2018-11-06T10:38:25.672Z,15.00
2018-11-06T10:40:55.513Z,15.15
2018-11-06T10:43:25.422Z,15.19
2018-11-06T10:45:55.341Z,15.18
2018-11-06T10:48:25.606Z,15.23
2018-11-06T10:50:55.506Z,15.32
2018-11-06T10:53:25.398Z,15.34
2018-11-06T10:55:55.357Z,15.47
2018-11-06T10:58:25.144Z,15.45
2018-11-06T11:01:00.055Z,15.42
2018-11-06T11:03:35.770Z,15.38
2018-11-06T11:06:05.643Z,15.40
2018-11-06T11:08:35.507Z,15.47
2018-11-06T11:11:05.502Z,15.48
2018-11-06T11:13:35.410Z,15.53
2018-11-06T11:16:05.226Z,15.60
2018-11-06T11:18:35.154Z,15.66
2018-11-06T11:21:05.122Z,15.69
2018-11-06T11:23:34.932Z,15.78
2018-11-06T11:26:04.800Z,15.79
2018-11-06T11:28:34.784Z,15.81
2018-11-06T11:31:04.720Z,15.89
2018-11-06T11:33:34.490Z,15.89
2018-11-06T11:36:04.250Z,15.90
2018-11-06T11:38:34.064Z,15.90
2018-11-06T11:41:03.912Z,15.90
2018-11-06T11:43:33.705Z,15.90
2018-11-06T11:46:03.539Z,15.94
2018-11-06T11:48:33.340Z,15.98
2018-11-06T11:51:03.106Z,15.92
2018-11-06T11:53:32.995Z,16.02
2018-11-06T11:56:02.841Z,16.02
2018-11-06T11:58:32.640Z,16.01
2018-11-06T12:01:02.454Z,15.96
2018-11-06T12:03:32.427Z,15.96
2018-11-06T12:06:02.154Z,16.04
2018-11-06T12:08:31.986Z,16.08
2018-11-06T12:11:01.871Z,16.12
2018-11-06T12:13:31.730Z,16.08
2018-11-06T12:16:01.513Z,16.07
2018-11-06T12:18:31.349Z,16.12
2018-11-06T12:21:01.099Z,16.13
2018-11-06T12:23:30.976Z,16.18
2018-11-06T12:26:01.020Z,16.16
2018-11-06T12:28:30.844Z,16.12
2018-11-06T12:31:00.572Z,16.11
2018-11-06T12:33:30.417Z,16.10
2018-11-06T12:36:00.213Z,16.08
2018-11-06T12:38:30.008Z,16.07
2018-11-06T12:40:59.877Z,16.07
2018-11-06T12:43:30.278Z,16.07
2018-11-06T12:46:00.065Z,16.05
2018-11-06T12:48:29.861Z,16.04
2018-11-06T12:50:59.675Z,16.02
2018-11-06T12:53:29.449Z,15.99
2018-11-06T12:55:59.189Z,16.02
2018-11-06T12:58:28.924Z,16.07
2018-11-06T13:00:58.620Z,16.08
2018-11-06T13:03:28.441Z,16.08
2018-11-06T13:05:58.149Z,16.05
2018-11-06T13:08:27.921Z,16.09
2018-11-06T13:10:57.753Z,16.19
2018-11-06T13:13:27.557Z,16.12
2018-11-06T13:15:57.372Z,16.09
2018-11-06T13:18:27.097Z,16.04
2018-11-06T13:20:56.959Z,16.08
2018-11-06T13:23:26.829Z,16.12
2018-11-06T13:25:56.916Z,16.10
2018-11-06T13:28:26.643Z,16.08
2018-11-06T13:30:56.436Z,16.05
2018-11-06T13:33:26.182Z,16.04
2018-11-06T13:35:55.993Z,16.06
2018-11-06T13:38:25.769Z,15.99
2018-11-06T13:40:55.809Z,15.89
2018-11-06T13:43:25.691Z,15.88
2018-11-06T13:45:55.447Z,15.93
2018-11-06T13:48:25.237Z,15.92
2018-11-06T13:50:55.093Z,15.93
2018-11-06T13:53:24.864Z,15.97
2018-11-06T13:55:54.691Z,15.95
2018-11-06T13:58:24.436Z,15.84
2018-11-06T14:00:54.238Z,15.77
2018-11-06T14:03:24.014Z,15.71
2018-11-06T14:05:53.910Z,15.80
2018-11-06T14:08:23.645Z,15.82
2018-11-06T14:10:53.495Z,15.72
2018-11-06T14:13:23.344Z,15.70
2018-11-06T14:15:53.044Z,15.60
2018-11-06T14:18:22.899Z,15.50
2018-11-06T14:20:52.801Z,15.45
2018-11-06T14:23:22.640Z,15.43
2018-11-06T14:25:52.428Z,15.35
2018-11-06T14:28:22.513Z,15.26
2018-11-06T14:30:52.393Z,15.26
2018-11-06T14:33:22.191Z,15.18
2018-11-06T14:35:52.081Z,15.19
2018-11-06T14:38:21.888Z,15.16
2018-11-06T14:40:51.768Z,15.06
2018-11-06T14:43:21.620Z,14.98
2018-11-06T14:45:51.439Z,14.95
2018-11-06T14:48:21.348Z,14.84
2018-11-06T14:50:51.222Z,14.91
2018-11-06T14:53:21.042Z,14.84
2018-11-06T14:55:50.798Z,14.71
2018-11-06T14:58:20.618Z,14.68
2018-11-06T15:00:50.416Z,14.59
2018-11-06T15:03:20.209Z,14.48
2018-11-06T15:05:49.993Z,14.33
2018-11-06T15:08:19.992Z,14.33
2018-11-06T15:10:49.820Z,14.30
2018-11-06T15:13:19.589Z,14.28
2018-11-06T15:15:49.444Z,14.27
2018-11-06T15:18:19.169Z,14.17
2018-11-06T15:20:49.162Z,14.02
2018-11-06T15:23:18.893Z,13.99
2018-11-06T15:25:48.771Z,13.96
2018-11-06T15:28:18.643Z,13.84
2018-11-06T15:30:48.504Z,13.77
2018-11-06T15:33:18.306Z,13.66
2018-11-06T15:35:48.249Z,13.57
2018-11-06T15:38:18.108Z,13.46
2018-11-06T15:40:48.068Z,13.38
2018-11-06T15:43:17.936Z,13.28
2018-11-06T15:45:47.823Z,13.25
2018-11-06T15:48:17.746Z,13.27
2018-11-06T15:50:47.516Z,13.23
2018-11-06T15:53:17.320Z,13.21
2018-11-06T15:55:47.200Z,13.16
2018-11-06T15:58:17.064Z,13.14
2018-11-06T16:00:46.975Z,13.08
2018-11-06T16:03:16.750Z,12.98
2018-11-06T16:05:46.729Z,12.92
2018-11-06T16:08:16.588Z,13.01
2018-11-06T16:10:46.360Z,13.01
2018-11-06T16:13:16.171Z,12.96
2018-11-06T16:15:45.975Z,12.98
2018-11-06T16:18:15.802Z,12.99
2018-11-06T16:20:45.628Z,12.91
2018-11-06T16:23:15.810Z,12.87
2018-11-06T16:25:45.629Z,12.88
2018-11-06T16:28:15.429Z,12.78
2018-11-06T16:30:45.275Z,12.73
2018-11-06T16:33:15.460Z,12.64
2018-11-06T16:35:45.522Z,12.62
2018-11-06T16:38:15.578Z,12.55
2018-11-06T16:40:45.511Z,12.46
2018-11-06T16:43:15.550Z,12.41
2018-11-06T16:45:45.773Z,12.40
2018-11-06T16:48:16.331Z,12.34
2018-11-06T16:50:46.331Z,12.30
2018-11-06T16:53:16.288Z,12.22
2018-11-06T16:55:46.208Z,12.24
2018-11-06T16:58:16.210Z,12.23
2018-11-06T17:00:46.226Z,12.20
2018-11-06T17:03:16.040Z,12.13
2018-11-06T17:05:45.893Z,12.08
2018-11-06T17:08:15.726Z,12.00
2018-11-06T17:10:45.603Z,12.00
2018-11-06T17:13:15.550Z,12.00
2018-11-06T17:15:45.495Z,11.97
2018-11-06T17:18:15.377Z,11.97
2018-11-06T17:20:45.297Z,11.92
2018-11-06T17:23:15.188Z,11.98
2018-11-06T17:25:45.214Z,11.96
2018-11-06T17:28:15.076Z,11.93
2018-11-06T17:30:44.951Z,11.86
2018-11-06T17:33:15.540Z,11.84
2018-11-06T17:35:45.671Z,11.79
2018-11-06T17:38:15.647Z,11.85
2018-11-06T17:40:45.597Z,11.77
2018-11-06T17:43:15.523Z,11.69
2018-11-06T17:45:45.426Z,11.77
2018-11-06T17:48:15.559Z,11.88
2018-11-06T17:50:45.547Z,11.73
2018-11-06T17:53:16.285Z,11.68
2018-11-06T17:55:46.235Z,11.74
2018-11-06T17:58:16.162Z,11.75
2018-11-06T18:00:46.039Z,11.70
2018-11-06T18:03:16.098Z,11.58
2018-11-06T18:05:46.186Z,11.43
2018-11-06T18:08:16.166Z,11.33
2018-11-06T18:10:46.393Z,11.33
2018-11-06T18:13:16.512Z,11.37
2018-11-06T18:15:46.515Z,11.49
2018-11-06T18:18:16.510Z,11.43
2018-11-06T18:20:46.479Z,11.45
2018-11-06T18:23:16.408Z,11.52
2018-11-06T18:25:46.477Z,11.49
2018-11-06T18:28:16.244Z,11.44
2018-11-06T18:30:46.213Z,11.28
2018-11-06T18:33:16.079Z,11.16
2018-11-06T18:35:46.139Z,11.11
2018-11-06T18:38:16.242Z,11.16
2018-11-06T18:40:46.347Z,11.16
2018-11-06T18:43:16.329Z,11.10
2018-11-06T18:45:46.239Z,11.03
2018-11-06T18:48:16.117Z,11.03
2018-11-06T18:50:46.041Z,11.00
2018-11-06T18:53:16.038Z,10.97
2018-11-06T18:55:45.948Z,10.86
2018-11-06T18:58:16.077Z,10.79
2018-11-06T19:00:46.091Z,10.82
2018-11-06T19:03:16.090Z,10.72
2018-11-06T19:05:45.971Z,10.87
2018-11-06T19:08:15.840Z,10.90
2018-11-06T19:10:45.758Z,10.77
2018-11-06T19:13:16.058Z,10.65
2018-11-06T19:15:45.965Z,10.67
2018-11-06T19:18:15.900Z,10.66
2018-11-06T19:20:45.909Z,10.69
2018-11-06T19:23:16.029Z,10.73
2018-11-06T19:25:46.053Z,10.73
2018-11-06T19:28:16.040Z,10.72
2018-11-06T19:30:45.948Z,10.65
2018-11-06T19:33:15.847Z,10.72
2018-11-06T19:35:45.710Z,10.69
2018-11-06T19:38:15.852Z,10.65
2018-11-06T19:40:45.670Z,10.66
2018-11-06T19:43:15.623Z,10.72
2018-11-06T19:45:45.674Z,10.66
2018-11-06T19:48:15.609Z,10.57
2018-11-06T19:50:45.703Z,10.54
2018-11-06T19:53:15.669Z,10.46
2018-11-06T19:55:45.410Z,10.38
2018-11-06T19:58:15.475Z,10.36
2018-11-06T20:00:46.021Z,10.32
2018-11-06T20:03:16.566Z,10.36
2018-11-06T20:05:46.528Z,10.40
2018-11-06T20:08:16.519Z,10.31
2018-11-06T20:10:46.478Z,10.28
2018-11-06T20:13:16.546Z,10.30
2018-11-06T20:15:46.523Z,10.30
2018-11-06T20:18:16.606Z,10.36
2018-11-06T20:20:46.542Z,10.39
2018-11-06T20:23:16.690Z,10.44
2018-11-06T20:25:47.284Z,10.46
2018-11-06T20:28:17.278Z,10.40
2018-11-06T20:30:47.206Z,10.31
2018-11-06T20:33:17.249Z,10.37
2018-11-06T20:35:47.411Z,10.38
2018-11-06T20:38:17.576Z,10.48
2018-11-06T20:40:47.705Z,10.39
2018-11-06T20:43:18.168Z,10.35
2018-11-06T20:45:48.090Z,10.30
2018-11-06T20:48:18.062Z,10.25
2018-11-06T20:50:48.019Z,10.39
2018-11-06T20:53:17.999Z,10.29
2018-11-06T20:55:47.888Z,10.28
2018-11-06T20:58:17.721Z,10.26
2018-11-06T21:00:47.587Z,10.24
2018-11-06T21:03:17.385Z,10.20
2018-11-06T21:05:47.324Z,10.16
2018-11-06T21:08:17.314Z,10.10
2018-11-06T21:10:48.035Z,10.14
2018-11-06T21:13:18.031Z,10.18
2018-11-06T21:15:47.763Z,10.09
2018-11-06T21:18:17.601Z,10.11
2018-11-06T21:20:47.576Z,10.08
2018-11-06T21:23:17.685Z,9.92
2018-11-06T21:25:48.059Z,9.92
2018-11-06T21:28:17.760Z,9.90
2018-11-06T21:30:47.671Z,9.81
2018-11-06T21:33:17.645Z,9.77
2018-11-06T21:35:47.609Z,9.79
2018-11-06T21:38:17.678Z,9.74
2018-11-06T21:40:47.616Z,9.68
2018-11-06T21:43:17.534Z,9.67
2018-11-06T21:45:47.526Z,9.58
2018-11-06T21:48:17.568Z,9.53
2018-11-06T21:50:47.497Z,9.58
2018-11-06T21:53:17.401Z,9.48
2018-11-06T21:55:47.323Z,9.47
2018-11-06T21:58:18.200Z,9.39
2018-11-06T22:00:48.239Z,9.36
2018-11-06T22:03:18.275Z,9.36
2018-11-06T22:05:48.243Z,9.27
2018-11-06T22:08:18.277Z,9.31
2018-11-06T22:10:48.214Z,9.36
2018-11-06T22:13:18.148Z,9.29
2018-11-06T22:15:48.031Z,9.26
2018-11-06T22:18:17.949Z,9.18
2018-11-06T22:20:47.929Z,9.08
2018-11-06T22:23:17.781Z,9.04
2018-11-06T22:25:47.578Z,9.05
2018-11-06T22:28:17.430Z,9.04
2018-11-06T22:30:47.272Z,9.09
2018-11-06T22:33:17.153Z,9.09
2018-11-06T22:35:48.199Z,9.11
2018-11-06T22:38:18.026Z,9.13
2018-11-06T22:40:48.053Z,9.12
2018-11-06T22:43:18.452Z,9.13
2018-11-06T22:45:48.308Z,9.14
2018-11-06T22:48:18.313Z,9.15
2018-11-06T22:50:48.167Z,9.16
2018-11-06T22:53:18.212Z,9.25
2018-11-06T22:55:48.152Z,9.28
2018-11-06T22:58:17.960Z,9.19
2018-11-06T23:00:53.151Z,9.09
2018-11-06T23:03:23.091Z,9.12
2018-11-06T23:05:53.130Z,9.08
2018-11-06T23:08:25.472Z,9.09
2018-11-06T23:10:55.868Z,8.96
2018-11-06T23:13:26.249Z,8.81
2018-11-06T23:15:56.077Z,8.69
2018-11-06T23:18:26.068Z,8.61
2018-11-06T23:20:56.005Z,8.53
2018-11-06T23:23:25.908Z,8.50
2018-11-06T23:25:55.900Z,8.40
2018-11-06T23:28:25.828Z,8.43
2018-11-06T23:30:55.741Z,8.43
2018-11-06T23:33:25.840Z,8.35
2018-11-06T23:35:55.806Z,8.30
2018-11-06T23:38:25.633Z,8.23
2018-11-06T23:40:55.498Z,8.21
2018-11-06T23:43:25.445Z,8.40
2018-11-06T23:45:55.282Z,8.47
2018-11-06T23:48:25.148Z,8.46
2018-11-06T23:50:54.999Z,8.35
2018-11-06T23:53:24.805Z,8.30
2018-11-06T23:55:54.672Z,8.29
2018-11-06T23:58:24.494Z,8.26
